Погода Кольервилльна 2 недели

Теннесси, США

13 - 25 июня
  • 13июня
    Сегодня
    +18°
    +32°
    Ясно и безоблачно
    ВремяПогодаТемператураВлажностьДавлениеВетер, м/сВероятность осадков
    01:00Ясно и безоблачно+19°C87 %750 мм1.6 м/с2 %
    04:00Ясно и безоблачно+17°C91 %750 мм0.8 м/с2 %
    07:00Ясно и безоблачно+18°C87 %751 мм1.1 м/с2 %
    10:00Ясно и безоблачно+27°C50 %752 мм2.0 м/с2 %
    13:00Ясно и безоблачно+30°C39 %751 мм2.2 м/с2 %
    16:00Ясно и безоблачно+32°C39 %750 мм1.8 м/с2 %
    19:00Ясно и безоблачно+30°C62 %750 мм2.5 м/с2 %
    22:00Ясно и безоблачно+25°C75 %750 мм0.5 м/с2 %
  • 14июня
    Пятница
    +23°
    +34°
    Ясно и безоблачно
    ВремяПогодаТемператураВлажностьДавлениеВетер, м/сВероятность осадков
    01:00Ясно и безоблачно+22°C80 %750 мм1.2 м/с2 %
    04:00Небольшая облачность+20°C87 %750 мм0.6 м/с2 %
    07:00Ясно и безоблачно+21°C86 %751 мм0.6 м/с2 %
    10:00Ясно и безоблачно+29°C53 %751 мм2.1 м/с2 %
    13:00Ясно и безоблачно+32°C45 %751 мм2.9 м/с2 %
    16:00Ясно и безоблачно+34°C46 %750 мм2.7 м/с2 %
    19:00Небольшая облачность+32°C62 %749 мм3.1 м/с2 %
    22:00Небольшая облачность+28°C75 %750 мм1.6 м/с2 %
  • 15июня
    Суббота
    +23°
    +35°
    Облачно с прояснениями
    ВремяПогодаТемператураВлажностьДавлениеВетер, м/сВероятность осадков
    01:00Ясно и безоблачно+25°C87 %750 мм2.2 м/с2 %
    04:00Ясно и безоблачно+24°C94 %750 мм1.8 м/с2 %
    07:00Ясно и безоблачно+24°C92 %751 мм2.2 м/с2 %
    10:00Ясно и безоблачно+30°C60 %751 мм3.7 м/с2 %
    13:00Облачно с прояснениями+32°C46 %751 мм3.7 м/с2 %
    16:00Облачно с прояснениями+34°C38 %749 мм2.9 м/с4 %
    19:00Ясно и безоблачно+32°C48 %749 мм3.9 м/с3 %
    22:00Небольшая облачность+28°C54 %750 мм1.6 м/с2 %
  • 16июня
    Воскресенье
    +23°
    +36°
    Ясно и безоблачно
    ВремяПогодаТемператураВлажностьДавлениеВетер, м/сВероятность осадков
    01:00Ясно и безоблачно+26°C64 %750 мм2.3 м/с2 %
    04:00Ясно и безоблачно+24°C69 %749 мм2.0 м/с2 %
    07:00Ясно и безоблачно+23°C73 %750 мм2.2 м/с2 %
    10:00Ясно и безоблачно+31°C58 %751 мм3.0 м/с2 %
    13:00Ясно и безоблачно+34°C38 %750 мм3.3 м/с3 %
    16:00Небольшая облачность+36°C32 %749 мм3.0 м/с17 %
    19:00Небольшая облачность+34°C49 %749 мм3.2 м/с9 %
    22:00Практически безоблачно+29°C65 %750 мм1.7 м/с3 %
Мы используем cookies
Соглашаюсь